sensor_id;sensor_type;location;lat;lon;timestamp;pressure;altitude;pressure_sealevel;temperature;humidity
40245;BME280;25963;42.694;23.600;2023-02-13T00:00:15;96961.50;;;-2.14;100.00
40245;BME280;25963;42.694;23.600;2023-02-13T00:02:41;96967.69;;;-2.02;100.00
40245;BME280;25963;42.694;23.600;2023-02-13T00:05:07;96966.66;;;-2.00;100.00
40245;BME280;25963;42.694;23.600;2023-02-13T00:07:32;96955.00;;;-1.93;100.00
40245;BME280;25963;42.694;23.600;2023-02-13T00:09:58;96950.13;;;-1.97;100.00
40245;BME280;25963;42.694;23.600;2023-02-13T00:12:23;96972.91;;;-1.90;100.00
40245;BME280;25963;42.694;23.600;2023-02-13T00:14:48;96967.47;;;-1.85;100.00
40245;BME280;25963;42.694;23.600;2023-02-13T00:17:14;96963.94;;;-1.84;100.00
40245;BME280;25963;42.694;23.600;2023-02-13T00:19:39;96969.56;;;-1.77;100.00
40245;BME280;25963;42.694;23.600;2023-02-13T00:22:05;96963.75;;;-1.81;100.00
40245;BME280;25963;42.694;23.600;2023-02-13T00:24:30;96969.66;;;-1.79;100.00
40245;BME280;25963;42.694;23.600;2023-02-13T00:26:56;96965.50;;;-1.81;100.00
40245;BME280;25963;42.694;23.600;2023-02-13T00:29:21;96971.31;;;-1.78;100.00
40245;BME280;25963;42.694;23.600;2023-02-13T00:31:47;96972.13;;;-1.77;100.00
40245;BME280;25963;42.694;23.600;2023-02-13T00:34:12;96974.16;;;-1.83;100.00
40245;BME280;25963;42.694;23.600;2023-02-13T00:36:37;96973.81;;;-1.76;100.00
40245;BME280;25963;42.694;23.600;2023-02-13T00:39:03;96979.19;;;-1.79;100.00
40245;BME280;25963;42.694;23.600;2023-02-13T00:41:29;96989.41;;;-1.78;100.00
40245;BME280;25963;42.694;23.600;2023-02-13T00:43:54;96987.41;;;-1.87;100.00
40245;BME280;25963;42.694;23.600;2023-02-13T00:46:20;96992.03;;;-1.92;100.00
40245;BME280;25963;42.694;23.600;2023-02-13T00:48:45;96988.44;;;-1.90;100.00
40245;BME280;25963;42.694;23.600;2023-02-13T00:51:11;96985.47;;;-1.84;100.00
40245;BME280;25963;42.694;23.600;2023-02-13T00:53:37;96991.13;;;-1.91;100.00
40245;BME280;25963;42.694;23.600;2023-02-13T00:56:04;96990.75;;;-1.85;100.00
40245;BME280;25963;42.694;23.600;2023-02-13T00:58:30;96992.28;;;-1.83;100.00
40245;BME280;25963;42.694;23.600;2023-02-13T01:00:56;96994.88;;;-1.83;100.00
40245;BME280;25963;42.694;23.600;2023-02-13T01:03:22;96982.69;;;-1.80;100.00
40245;BME280;25963;42.694;23.600;2023-02-13T01:05:48;96990.34;;;-1.79;100.00
40245;BME280;25963;42.694;23.600;2023-02-13T01:08:14;96987.47;;;-1.74;100.00
40245;BME280;25963;42.694;23.600;2023-02-13T01:10:41;96982.28;;;-1.74;100.00
40245;BME280;25963;42.694;23.600;2023-02-13T01:13:07;96982.41;;;-1.76;100.00
40245;BME280;25963;42.694;23.600;2023-02-13T01:15:33;96986.00;;;-1.78;100.00
40245;BME280;25963;42.694;23.600;2023-02-13T01:17:59;96985.38;;;-1.82;100.00
40245;BME280;25963;42.694;23.600;2023-02-13T01:20:26;96994.78;;;-1.81;100.00
40245;BME280;25963;42.694;23.600;2023-02-13T01:22:51;96993.03;;;-1.80;100.00
40245;BME280;25963;42.694;23.600;2023-02-13T01:25:17;96998.84;;;-1.77;100.00
40245;BME280;25963;42.694;23.600;2023-02-13T01:27:43;96992.00;;;-1.78;100.00
40245;BME280;25963;42.694;23.600;2023-02-13T01:30:11;96991.06;;;-1.77;100.00
40245;BME280;25963;42.694;23.600;2023-02-13T01:32:42;97001.22;;;-1.74;100.00
40245;BME280;25963;42.694;23.600;2023-02-13T01:35:09;96992.75;;;-1.76;100.00
40245;BME280;25963;42.694;23.600;2023-02-13T01:37:35;96986.94;;;-1.79;100.00
40245;BME280;25963;42.694;23.600;2023-02-13T01:40:02;96985.25;;;-1.80;100.00
40245;BME280;25963;42.694;23.600;2023-02-13T01:42:30;96998.84;;;-1.77;100.00
40245;BME280;25963;42.694;23.600;2023-02-13T01:44:59;97003.00;;;-1.74;100.00
40245;BME280;25963;42.694;23.600;2023-02-13T01:47:45;96992.84;;;-1.77;100.00
40245;BME280;25963;42.694;23.600;2023-02-13T01:52:51;96989.78;;;-1.70;100.00
40245;BME280;25963;42.694;23.600;2023-02-13T01:55:18;96994.00;;;-1.69;100.00
40245;BME280;25963;42.694;23.600;2023-02-13T01:57:49;96993.75;;;-1.64;100.00
40245;BME280;25963;42.694;23.600;2023-02-13T02:00:17;96986.25;;;-1.69;100.00
40245;BME280;25963;42.694;23.600;2023-02-13T02:02:48;96986.25;;;-1.69;100.00
40245;BME280;25963;42.694;23.600;2023-02-13T02:05:15;96995.84;;;-1.71;100.00
40245;BME280;25963;42.694;23.600;2023-02-13T02:07:43;96996.31;;;-1.64;100.00
40245;BME280;25963;42.694;23.600;2023-02-13T02:10:15;96995.38;;;-1.63;100.00
40245;BME280;25963;42.694;23.600;2023-02-13T02:12:47;96991.22;;;-1.66;100.00
40245;BME280;25963;42.694;23.600;2023-02-13T02:15:15;96997.16;;;-1.64;100.00
40245;BME280;25963;42.694;23.600;2023-02-13T02:17:40;96983.47;;;-1.66;100.00
40245;BME280;25963;42.694;23.600;2023-02-13T02:42:55;97020.63;;;-1.67;100.00
40245;BME280;25963;42.694;23.600;2023-02-13T02:44:59;97018.75;;;-1.65;100.00
40245;BME280;25963;42.694;23.600;2023-02-13T02:50:33;97023.66;;;-1.60;100.00
40245;BME280;25963;42.694;23.600;2023-02-13T02:56:19;97018.00;;;-1.52;100.00
40245;BME280;25963;42.694;23.600;2023-02-13T02:59:01;97028.69;;;-1.44;100.00
40245;BME280;25963;42.694;23.600;2023-02-13T03:01:47;97021.75;;;-1.44;100.00
40245;BME280;25963;42.694;23.600;2023-02-13T03:04:45;97021.19;;;-1.34;100.00
40245;BME280;25963;42.694;23.600;2023-02-13T03:07:29;97028.59;;;-1.43;100.00
40245;BME280;25963;42.694;23.600;2023-02-13T03:09:57;97028.22;;;-1.36;100.00
40245;BME280;25963;42.694;23.600;2023-02-13T03:12:56;97026.38;;;-1.34;100.00
40245;BME280;25963;42.694;23.600;2023-02-13T03:15:44;97019.00;;;-1.41;100.00
40245;BME280;25963;42.694;23.600;2023-02-13T03:18:32;97028.50;;;-1.41;100.00
40245;BME280;25963;42.694;23.600;2023-02-13T03:30:18;97026.28;;;-1.47;100.00
40245;BME280;25963;42.694;23.600;2023-02-13T03:35:46;97024.69;;;-1.35;100.00
40245;BME280;25963;42.694;23.600;2023-02-13T03:41:24;97019.00;;;-1.41;100.00
40245;BME280;25963;42.694;23.600;2023-02-13T03:44:04;97029.03;;;-1.36;100.00
40245;BME280;25963;42.694;23.600;2023-02-13T03:46:34;97023.88;;;-1.36;100.00
40245;BME280;25963;42.694;23.600;2023-02-13T03:49:05;97024.06;;;-1.39;100.00
40245;BME280;25963;42.694;23.600;2023-02-13T03:54:57;97030.81;;;-1.36;100.00
40245;BME280;25963;42.694;23.600;2023-02-13T03:57:44;97028.03;;;-1.33;100.00
40245;BME280;25963;42.694;23.600;2023-02-13T04:00:38;97023.22;;;-1.40;100.00
40245;BME280;25963;42.694;23.600;2023-02-13T04:05:59;97031.03;;;-1.54;100.00
40245;BME280;25963;42.694;23.600;2023-02-13T04:08:26;97034.56;;;-1.55;100.00
40245;BME280;25963;42.694;23.600;2023-02-13T04:11:02;97034.44;;;-1.53;100.00
40245;BME280;25963;42.694;23.600;2023-02-13T04:13:34;97041.38;;;-1.54;100.00
40245;BME280;25963;42.694;23.600;2023-02-13T04:16:18;97046.13;;;-1.61;100.00
40245;BME280;25963;42.694;23.600;2023-02-13T04:18:46;97036.78;;;-1.63;100.00
40245;BME280;25963;42.694;23.600;2023-02-13T04:21:12;97033.28;;;-1.62;100.00
40245;BME280;25963;42.694;23.600;2023-02-13T04:23:38;97035.97;;;-1.64;100.00
40245;BME280;25963;42.694;23.600;2023-02-13T04:26:07;97033.22;;;-1.75;100.00
40245;BME280;25963;42.694;23.600;2023-02-13T04:28:36;97028.88;;;-1.89;100.00
40245;BME280;25963;42.694;23.600;2023-02-13T04:31:01;97020.03;;;-1.99;100.00
40245;BME280;25963;42.694;23.600;2023-02-13T04:33:26;97032.22;;;-2.01;100.00
40245;BME280;25963;42.694;23.600;2023-02-13T04:35:52;97031.50;;;-2.03;100.00
40245;BME280;25963;42.694;23.600;2023-02-13T04:38:17;97026.97;;;-2.14;100.00
40245;BME280;25963;42.694;23.600;2023-02-13T04:40:43;97031.31;;;-2.14;100.00
40245;BME280;25963;42.694;23.600;2023-02-13T04:43:08;97034.47;;;-2.23;100.00
40245;BME280;25963;42.694;23.600;2023-02-13T04:45:33;97040.91;;;-2.31;100.00
40245;BME280;25963;42.694;23.600;2023-02-13T04:47:59;97040.56;;;-2.39;100.00
40245;BME280;25963;42.694;23.600;2023-02-13T04:50:25;97041.19;;;-2.35;100.00
40245;BME280;25963;42.694;23.600;2023-02-13T04:52:54;97034.56;;;-2.39;100.00
40245;BME280;25963;42.694;23.600;2023-02-13T04:55:22;97041.09;;;-2.48;100.00
40245;BME280;25963;42.694;23.600;2023-02-13T04:57:47;97040.94;;;-2.45;100.00
40245;BME280;25963;42.694;23.600;2023-02-13T05:00:13;97043.50;;;-2.45;100.00
40245;BME280;25963;42.694;23.600;2023-02-13T05:02:38;97050.50;;;-2.47;100.00
40245;BME280;25963;42.694;23.600;2023-02-13T05:05:04;97049.94;;;-2.52;100.00
40245;BME280;25963;42.694;23.600;2023-02-13T05:07:30;97045.72;;;-2.53;100.00
40245;BME280;25963;42.694;23.600;2023-02-13T05:09:55;97054.22;;;-2.51;100.00
40245;BME280;25963;42.694;23.600;2023-02-13T05:12:20;97056.63;;;-2.48;100.00
40245;BME280;25963;42.694;23.600;2023-02-13T05:14:46;97061.78;;;-2.48;100.00
40245;BME280;25963;42.694;23.600;2023-02-13T05:17:11;97052.81;;;-2.57;100.00
40245;BME280;25963;42.694;23.600;2023-02-13T05:19:37;97060.38;;;-2.54;100.00
40245;BME280;25963;42.694;23.600;2023-02-13T05:22:02;97052.63;;;-2.54;100.00
40245;BME280;25963;42.694;23.600;2023-02-13T05:24:46;97060.84;;;-2.47;100.00
40245;BME280;25963;42.694;23.600;2023-02-13T05:27:11;97062.13;;;-2.40;100.00
40245;BME280;25963;42.694;23.600;2023-02-13T05:29:37;97064.66;;;-2.38;100.00
40245;BME280;25963;42.694;23.600;2023-02-13T05:32:02;97061.78;;;-2.34;100.00
40245;BME280;25963;42.694;23.600;2023-02-13T05:34:28;97073.50;;;-2.28;100.00
40245;BME280;25963;42.694;23.600;2023-02-13T05:36:53;97073.31;;;-2.25;100.00
40245;BME280;25963;42.694;23.600;2023-02-13T05:39:19;97060.50;;;-2.41;100.00
40245;BME280;25963;42.694;23.600;2023-02-13T05:41:46;97077.59;;;-2.24;100.00
40245;BME280;25963;42.694;23.600;2023-02-13T05:44:12;97078.41;;;-2.23;100.00
40245;BME280;25963;42.694;23.600;2023-02-13T05:46:39;97079.16;;;-2.21;100.00
40245;BME280;25963;42.694;23.600;2023-02-13T05:49:06;97081.66;;;-2.20;100.00
40245;BME280;25963;42.694;23.600;2023-02-13T05:51:33;97082.47;;;-2.19;100.00
40245;BME280;25963;42.694;23.600;2023-02-13T05:53:58;97078.97;;;-2.18;100.00
40245;BME280;25963;42.694;23.600;2023-02-13T05:56:24;97078.97;;;-2.18;100.00
40245;BME280;25963;42.694;23.600;2023-02-13T05:58:53;97073.63;;;-2.15;100.00
40245;BME280;25963;42.694;23.600;2023-02-13T06:01:19;97082.03;;;-2.12;100.00
40245;BME280;25963;42.694;23.600;2023-02-13T06:03:45;97074.34;;;-2.13;100.00
40245;BME280;25963;42.694;23.600;2023-02-13T06:06:10;97079.44;;;-2.12;100.00
40245;BME280;25963;42.694;23.600;2023-02-13T06:08:36;97085.91;;;-2.04;100.00
40245;BME280;25963;42.694;23.600;2023-02-13T06:11:02;97094.84;;;-1.96;100.00
40245;BME280;25963;42.694;23.600;2023-02-13T06:13:27;97092.09;;;-1.93;100.00
40245;BME280;25963;42.694;23.600;2023-02-13T06:15:53;97091.44;;;-1.82;100.00
40245;BME280;25963;42.694;23.600;2023-02-13T06:18:18;97098.28;;;-1.81;100.00
40245;BME280;25963;42.694;23.600;2023-02-13T06:20:44;97095.22;;;-1.73;100.00
40245;BME280;25963;42.694;23.600;2023-02-13T06:23:09;97100.94;;;-1.68;100.00
40245;BME280;25963;42.694;23.600;2023-02-13T06:25:35;97107.41;;;-1.61;100.00
40245;BME280;25963;42.694;23.600;2023-02-13T06:28:01;97101.84;;;-1.55;100.00
40245;BME280;25963;42.694;23.600;2023-02-13T06:30:26;97098.69;;;-1.46;100.00
40245;BME280;25963;42.694;23.600;2023-02-13T06:32:52;97101.66;;;-1.38;100.00
40245;BME280;25963;42.694;23.600;2023-02-13T06:35:17;97104.38;;;-1.26;100.00
40245;BME280;25963;42.694;23.600;2023-02-13T06:37:43;97105.75;;;-1.21;100.00
40245;BME280;25963;42.694;23.600;2023-02-13T06:40:09;97104.72;;;-1.18;100.00
40245;BME280;25963;42.694;23.600;2023-02-13T06:42:35;97115.53;;;-1.11;100.00
40245;BME280;25963;42.694;23.600;2023-02-13T06:45:00;97110.16;;;-1.08;100.00
40245;BME280;25963;42.694;23.600;2023-02-13T06:47:26;97102.09;;;-1.04;100.00
40245;BME280;25963;42.694;23.600;2023-02-13T06:49:51;97117.59;;;-0.89;100.00
40245;BME280;25963;42.694;23.600;2023-02-13T06:52:17;97112.91;;;-0.84;100.00
40245;BME280;25963;42.694;23.600;2023-02-13T06:54:42;97114.22;;;-0.77;100.00
40245;BME280;25963;42.694;23.600;2023-02-13T06:57:08;97116.28;;;-0.70;100.00
40245;BME280;25963;42.694;23.600;2023-02-13T06:59:33;97091.84;;;-0.65;100.00
40245;BME280;25963;42.694;23.600;2023-02-13T07:01:59;97104.00;;;-0.53;100.00
40245;BME280;25963;42.694;23.600;2023-02-13T07:04:24;97111.25;;;-0.46;100.00
40245;BME280;25963;42.694;23.600;2023-02-13T07:06:49;97106.41;;;-0.37;100.00
40245;BME280;25963;42.694;23.600;2023-02-13T07:09:15;97108.25;;;-0.39;100.00
40245;BME280;25963;42.694;23.600;2023-02-13T07:11:41;97098.63;;;-0.37;100.00
40245;BME280;25963;42.694;23.600;2023-02-13T07:14:07;97112.22;;;-0.21;100.00
40245;BME280;25963;42.694;23.600;2023-02-13T07:16:33;97101.03;;;-0.09;100.00
40245;BME280;25963;42.694;23.600;2023-02-13T07:18:58;97109.41;;;0.08;100.00
40245;BME280;25963;42.694;23.600;2023-02-13T07:21:23;97106.94;;;0.19;100.00
40245;BME280;25963;42.694;23.600;2023-02-13T07:23:50;97102.66;;;0.31;100.00
40245;BME280;25963;42.694;23.600;2023-02-13T07:26:16;97111.03;;;0.47;100.00
40245;BME280;25963;42.694;23.600;2023-02-13T07:28:41;97111.38;;;0.42;100.00
40245;BME280;25963;42.694;23.600;2023-02-13T07:31:07;97108.63;;;0.57;100.00
40245;BME280;25963;42.694;23.600;2023-02-13T07:33:33;97108.91;;;0.65;100.00
40245;BME280;25963;42.694;23.600;2023-02-13T07:35:58;97114.66;;;0.57;100.00
40245;BME280;25963;42.694;23.600;2023-02-13T07:38:24;97110.22;;;0.83;100.00
40245;BME280;25963;42.694;23.600;2023-02-13T07:40:50;97102.69;;;0.91;100.00
40245;BME280;25963;42.694;23.600;2023-02-13T07:43:15;97107.38;;;0.86;100.00
40245;BME280;25963;42.694;23.600;2023-02-13T07:45:40;97109.16;;;1.10;100.00
40245;BME280;25963;42.694;23.600;2023-02-13T07:48:06;97113.75;;;1.30;100.00
40245;BME280;25963;42.694;23.600;2023-02-13T07:50:31;97118.28;;;1.40;100.00
40245;BME280;25963;42.694;23.600;2023-02-13T07:52:59;97109.34;;;1.55;100.00
40245;BME280;25963;42.694;23.600;2023-02-13T07:55:25;97114.09;;;1.61;100.00
40245;BME280;25963;42.694;23.600;2023-02-13T07:57:51;97104.47;;;1.86;100.00
40245;BME280;25963;42.694;23.600;2023-02-13T08:00:17;97085.91;;;2.01;100.00
40245;BME280;25963;42.694;23.600;2023-02-13T08:02:43;97105.09;;;2.34;100.00
40245;BME280;25963;42.694;23.600;2023-02-13T08:05:09;97113.03;;;2.55;100.00
40245;BME280;25963;42.694;23.600;2023-02-13T08:07:35;97102.00;;;2.63;100.00
40245;BME280;25963;42.694;23.600;2023-02-13T08:10:01;97110.63;;;2.86;100.00
40245;BME280;25963;42.694;23.600;2023-02-13T08:12:45;97114.13;;;2.96;100.00
40245;BME280;25963;42.694;23.600;2023-02-13T08:15:13;97114.75;;;2.88;100.00
40245;BME280;25963;42.694;23.600;2023-02-13T08:17:38;97114.44;;;3.14;99.80
40245;BME280;25963;42.694;23.600;2023-02-13T08:20:05;97106.13;;;3.20;95.86
40245;BME280;25963;42.694;23.600;2023-02-13T08:22:34;97113.34;;;3.28;96.21
40245;BME280;25963;42.694;23.600;2023-02-13T08:25:00;97106.66;;;3.35;93.05
40245;BME280;25963;42.694;23.600;2023-02-13T08:27:25;97112.69;;;3.67;97.87
40245;BME280;25963;42.694;23.600;2023-02-13T08:29:52;97116.97;;;3.89;91.15
40245;BME280;25963;42.694;23.600;2023-02-13T08:32:17;97109.91;;;4.01;88.83
40245;BME280;25963;42.694;23.600;2023-02-13T08:34:42;97118.53;;;4.23;84.39
40245;BME280;25963;42.694;23.600;2023-02-13T08:37:08;97114.63;;;4.38;85.75
40245;BME280;25963;42.694;23.600;2023-02-13T08:39:33;97110.31;;;4.58;87.59
40245;BME280;25963;42.694;23.600;2023-02-13T08:41:59;97117.91;;;4.71;81.46
40245;BME280;25963;42.694;23.600;2023-02-13T08:44:24;97108.38;;;4.60;79.47
40245;BME280;25963;42.694;23.600;2023-02-13T08:46:49;97113.34;;;4.32;79.73
40245;BME280;25963;42.694;23.600;2023-02-13T08:49:15;97110.88;;;4.62;85.42
40245;BME280;25963;42.694;23.600;2023-02-13T08:51:41;97111.31;;;4.67;76.82
40245;BME280;25963;42.694;23.600;2023-02-13T08:54:06;97110.06;;;4.71;80.58
40245;BME280;25963;42.694;23.600;2023-02-13T08:56:32;97093.94;;;4.66;77.53
40245;BME280;25963;42.694;23.600;2023-02-13T08:58:57;97096.09;;;5.11;87.20
40245;BME280;25963;42.694;23.600;2023-02-13T09:01:22;97101.19;;;5.02;77.63
40245;BME280;25963;42.694;23.600;2023-02-13T09:03:48;97104.22;;;4.98;76.95
40245;BME280;25963;42.694;23.600;2023-02-13T09:06:14;97102.16;;;5.01;77.56
40245;BME280;25963;42.694;23.600;2023-02-13T09:08:40;97109.63;;;5.16;75.78
40245;BME280;25963;42.694;23.600;2023-02-13T09:11:05;97108.09;;;5.03;75.24
40245;BME280;25963;42.694;23.600;2023-02-13T09:13:32;97095.16;;;5.12;77.08
40245;BME280;25963;42.694;23.600;2023-02-13T09:16:06;97103.56;;;5.25;76.98
40245;BME280;25963;42.694;23.600;2023-02-13T09:18:33;97107.09;;;4.95;75.48
40245;BME280;25963;42.694;23.600;2023-02-13T09:21:00;97103.97;;;5.11;74.95
40245;BME280;25963;42.694;23.600;2023-02-13T09:23:26;97093.84;;;4.77;73.49
40245;BME280;25963;42.694;23.600;2023-02-13T09:25:54;97090.50;;;4.55;76.93
40245;BME280;25963;42.694;23.600;2023-02-13T09:28:19;97100.78;;;4.57;79.70
40245;BME280;25963;42.694;23.600;2023-02-13T09:30:45;97090.91;;;4.61;77.97
40245;BME280;25963;42.694;23.600;2023-02-13T09:33:10;97088.78;;;4.45;79.23
40245;BME280;25963;42.694;23.600;2023-02-13T09:35:38;97091.53;;;4.43;80.16
40245;BME280;25963;42.694;23.600;2023-02-13T09:38:06;97091.22;;;4.67;78.24
40245;BME280;25963;42.694;23.600;2023-02-13T09:40:46;97089.28;;;4.29;76.92
40245;BME280;25963;42.694;23.600;2023-02-13T09:45:47;97082.75;;;4.54;78.23
40245;BME280;25963;42.694;23.600;2023-02-13T09:48:27;97079.41;;;4.83;76.65
40245;BME280;25963;42.694;23.600;2023-02-13T09:50:54;97076.41;;;4.97;77.38
40245;BME280;25963;42.694;23.600;2023-02-13T09:53:21;97075.19;;;5.11;76.86
40245;BME280;25963;42.694;23.600;2023-02-13T09:56:04;97068.72;;;5.34;74.73
40245;BME280;25963;42.694;23.600;2023-02-13T10:01:45;97063.13;;;4.60;72.44
40245;BME280;25963;42.694;23.600;2023-02-13T10:04:24;97068.25;;;4.71;73.66
40245;BME280;25963;42.694;23.600;2023-02-13T10:09:49;97057.72;;;5.31;75.84
40245;BME280;25963;42.694;23.600;2023-02-13T10:12:25;97046.69;;;5.46;74.33
40245;BME280;25963;42.694;23.600;2023-02-13T10:17:47;97048.03;;;5.60;71.61
40245;BME280;25963;42.694;23.600;2023-02-13T10:20:31;97043.88;;;5.67;75.91
40245;BME280;25963;42.694;23.600;2023-02-13T10:23:07;97038.69;;;5.38;69.58
40245;BME280;25963;42.694;23.600;2023-02-13T10:25:47;97030.31;;;6.01;70.13
40245;BME280;25963;42.694;23.600;2023-02-13T10:28:18;97026.59;;;6.13;70.60
40245;BME280;25963;42.694;23.600;2023-02-13T10:30:51;97024.44;;;6.27;70.09
40245;BME280;25963;42.694;23.600;2023-02-13T10:33:26;97020.69;;;6.02;67.51
40245;BME280;25963;42.694;23.600;2023-02-13T10:36:15;97017.63;;;6.06;71.66
40245;BME280;25963;42.694;23.600;2023-02-13T10:38:45;97015.97;;;6.05;68.36
40245;BME280;25963;42.694;23.600;2023-02-13T10:47:01;97001.69;;;6.73;68.00
40245;BME280;25963;42.694;23.600;2023-02-13T10:49:55;96996.66;;;6.44;72.85
40245;BME280;25963;42.694;23.600;2023-02-13T11:00:28;96984.50;;;6.15;67.74
40245;BME280;25963;42.694;23.600;2023-02-13T11:02:58;96985.94;;;6.27;68.05
40245;BME280;25963;42.694;23.600;2023-02-13T11:05:34;96980.59;;;6.19;66.57
40245;BME280;25963;42.694;23.600;2023-02-13T11:08:01;96974.00;;;6.43;65.76
40245;BME280;25963;42.694;23.600;2023-02-13T11:10:27;96961.22;;;6.57;65.25
40245;BME280;25963;42.694;23.600;2023-02-13T11:12:53;96966.44;;;6.39;65.94
40245;BME280;25963;42.694;23.600;2023-02-13T11:15:29;96964.19;;;6.45;65.20
40245;BME280;25963;42.694;23.600;2023-02-13T11:18:09;96954.16;;;6.58;64.09
40245;BME280;25963;42.694;23.600;2023-02-13T11:20:41;96959.34;;;6.50;66.42
40245;BME280;25963;42.694;23.600;2023-02-13T11:23:32;96947.69;;;6.80;68.67
40245;BME280;25963;42.694;23.600;2023-02-13T11:26:01;96947.53;;;6.81;70.73
40245;BME280;25963;42.694;23.600;2023-02-13T11:28:29;96926.31;;;6.93;70.64
40245;BME280;25963;42.694;23.600;2023-02-13T11:31:11;96919.94;;;6.95;62.61
40245;BME280;25963;42.694;23.600;2023-02-13T11:33:37;96921.28;;;6.81;66.78
40245;BME280;25963;42.694;23.600;2023-02-13T11:36:08;96919.22;;;6.85;66.24
40245;BME280;25963;42.694;23.600;2023-02-13T11:38:34;96920.38;;;7.08;64.39
40245;BME280;25963;42.694;23.600;2023-02-13T11:41:09;96910.19;;;7.31;67.65
40245;BME280;25963;42.694;23.600;2023-02-13T11:43:36;96909.69;;;7.28;63.91
40245;BME280;25963;42.694;23.600;2023-02-13T11:46:17;96900.31;;;7.51;62.67
40245;BME280;25963;42.694;23.600;2023-02-13T11:48:58;96894.84;;;7.45;62.66
40245;BME280;25963;42.694;23.600;2023-02-13T11:51:55;96898.13;;;7.73;64.61
40245;BME280;25963;42.694;23.600;2023-02-13T11:57:20;96894.00;;;7.70;62.67
40245;BME280;25963;42.694;23.600;2023-02-13T11:59:48;96880.59;;;7.82;61.63
40245;BME280;25963;42.694;23.600;2023-02-13T12:02:16;96882.25;;;7.83;63.21
40245;BME280;25963;42.694;23.600;2023-02-13T12:04:42;96877.41;;;8.04;60.92
40245;BME280;25963;42.694;23.600;2023-02-13T12:07:15;96880.72;;;8.22;62.87
40245;BME280;25963;42.694;23.600;2023-02-13T12:09:43;96861.66;;;8.12;59.72
40245;BME280;25963;42.694;23.600;2023-02-13T12:12:17;96869.38;;;7.71;60.82
40245;BME280;25963;42.694;23.600;2023-02-13T12:14:44;96865.16;;;7.78;59.68
40245;BME280;25963;42.694;23.600;2023-02-13T12:17:20;96863.88;;;7.91;60.90
40245;BME280;25963;42.694;23.600;2023-02-13T12:19:48;96861.81;;;8.03;60.60
40245;BME280;25963;42.694;23.600;2023-02-13T12:28:15;96843.69;;;7.49;57.75
40245;BME280;25963;42.694;23.600;2023-02-13T12:31:03;96847.41;;;7.72;62.25
40245;BME280;25963;42.694;23.600;2023-02-13T12:39:33;96839.88;;;7.86;56.32
40245;BME280;25963;42.694;23.600;2023-02-13T12:47:30;96820.75;;;8.10;59.26
40245;BME280;25963;42.694;23.600;2023-02-13T12:55:36;96810.75;;;8.21;53.32
40245;BME280;25963;42.694;23.600;2023-02-13T13:01:06;96802.44;;;8.51;56.81
40245;BME280;25963;42.694;23.600;2023-02-13T13:03:38;96796.34;;;8.42;54.49
40245;BME280;25963;42.694;23.600;2023-02-13T13:09:34;96794.84;;;8.39;54.57
40245;BME280;25963;42.694;23.600;2023-02-13T13:15:10;96787.94;;;8.55;52.00
40245;BME280;25963;42.694;23.600;2023-02-13T13:17:43;96775.97;;;8.44;52.50
40245;BME280;25963;42.694;23.600;2023-02-13T13:28:26;96758.53;;;8.43;49.48
40245;BME280;25963;42.694;23.600;2023-02-13T13:30:54;96754.91;;;8.68;50.18
40245;BME280;25963;42.694;23.600;2023-02-13T13:33:24;96757.84;;;8.82;49.70
40245;BME280;25963;42.694;23.600;2023-02-13T13:49:53;96751.91;;;8.22;49.53
40245;BME280;25963;42.694;23.600;2023-02-13T13:52:35;96743.06;;;8.40;49.38
40245;BME280;25963;42.694;23.600;2023-02-13T13:55:04;96750.16;;;8.39;48.87
40245;BME280;25963;42.694;23.600;2023-02-13T14:02:49;96742.56;;;8.61;47.81
40245;BME280;25963;42.694;23.600;2023-02-13T14:05:21;96741.78;;;8.44;47.95
40245;BME280;25963;42.694;23.600;2023-02-13T14:07:50;96741.78;;;8.44;47.33
40245;BME280;25963;42.694;23.600;2023-02-13T14:13:05;96736.81;;;8.33;46.46
40245;BME280;25963;42.694;23.600;2023-02-13T14:18:17;96732.38;;;8.33;47.16
40245;BME280;25963;42.694;23.600;2023-02-13T14:25:43;96719.06;;;8.18;46.45
40245;BME280;25963;42.694;23.600;2023-02-13T14:28:24;96720.69;;;7.95;47.21
40245;BME280;25963;42.694;23.600;2023-02-13T14:31:04;96711.50;;;8.07;47.81
40245;BME280;25963;42.694;23.600;2023-02-13T14:33:31;96714.09;;;7.83;47.52
40245;BME280;25963;42.694;23.600;2023-02-13T14:36:06;96712.31;;;7.75;48.97
40245;BME280;25963;42.694;23.600;2023-02-13T14:38:33;96712.50;;;7.90;49.06
40245;BME280;25963;42.694;23.600;2023-02-13T14:41:00;96713.28;;;7.66;48.43
40245;BME280;25963;42.694;23.600;2023-02-13T14:43:36;96715.22;;;7.64;48.72
40245;BME280;25963;42.694;23.600;2023-02-13T14:48:42;96700.69;;;7.35;49.63
40245;BME280;25963;42.694;23.600;2023-02-13T14:51:29;96708.78;;;7.07;51.19
40245;BME280;25963;42.694;23.600;2023-02-13T14:54:02;96719.41;;;6.98;51.59
40245;BME280;25963;42.694;23.600;2023-02-13T14:56:29;96716.78;;;6.98;51.37
40245;BME280;25963;42.694;23.600;2023-02-13T14:59:15;96716.13;;;6.96;52.44
40245;BME280;25963;42.694;23.600;2023-02-13T15:01:56;96714.78;;;6.92;52.37
40245;BME280;25963;42.694;23.600;2023-02-13T15:04:25;96714.38;;;6.78;53.12
40245;BME280;25963;42.694;23.600;2023-02-13T15:06:54;96710.38;;;6.66;53.54
40245;BME280;25963;42.694;23.600;2023-02-13T15:09:36;96712.13;;;6.57;53.41
40245;BME280;25963;42.694;23.600;2023-02-13T15:12:03;96709.25;;;6.43;52.62
40245;BME280;25963;42.694;23.600;2023-02-13T15:14:34;96711.66;;;6.36;53.41
40245;BME280;25963;42.694;23.600;2023-02-13T15:17:05;96711.09;;;6.50;53.94
40245;BME280;25963;42.694;23.600;2023-02-13T15:19:31;96713.78;;;6.32;54.13
40245;BME280;25963;42.694;23.600;2023-02-13T15:22:00;96710.97;;;6.08;55.83
40245;BME280;25963;42.694;23.600;2023-02-13T15:24:29;96709.00;;;6.10;55.41
40245;BME280;25963;42.694;23.600;2023-02-13T15:27:00;96715.44;;;5.98;55.84
40245;BME280;25963;42.694;23.600;2023-02-13T15:29:27;96706.44;;;5.82;56.52
40245;BME280;25963;42.694;23.600;2023-02-13T15:31:53;96704.50;;;5.84;56.43
40245;BME280;25963;42.694;23.600;2023-02-13T15:36:50;96714.75;;;5.60;56.86